Terminal Aerodrome Forecast
Issued by NWS Charleston, WV

Current Version | Previous Version | Graphics & Text | Print | Product List | Glossary On
Versions: 1 2 3 4 5 6 7 8 9 10 11 12 13 14 15 16 17 18 19 20 21 22 23 24
000
FTUS41 KRLX 281000 AAC
TAFEKN
TAF AMD
KEKN 281021Z 2810/2906 00000KT 6SM BR BKN015
     FM281400 VRB03KT P6SM SCT020
     FM290200 00000KT P6SM FEW200
     FM290500 00000KT 5SM BR FEW250=

USA.gov is the U.S. government's official web portal to all federal, state and local government web resources and services.